Ely Municipal Airport
KELO : now visible

Airfield :











YOU CAN JOIN US ON...

 
LOGIN :

Register | Disclaimer

   EN    FR    IT 

 









Legend :    VFR   Marginal VFR   IFR   Intensive IFR   Very Intensive IFR
Visi :
Ceiling :
>= 8 km
>= 3000ft
5 to 8 km
1000 to 3000 ft
1500m to 5 km
500 to 1000 ft
800 to 1500m
200 to 500 ft
< 800m
< 200 ft
Symbols :   Thunderstorms  Fog  Heavy snow  Heavy precipitations  Wind > 20 kt






- Airport Elevation : 1456 ft


KELO - Ely Municipal

CURRENT METAR :
  • 092356Z AUTO 30010G23KT 10SM SCT031 BKN049 OVC060 M01/M07 A2990 RMK AO2

EXPIRED METARs :
  • 092335Z AUTO 31015G21KT 10SM SCT031 OVC040 M01/M06 A2990 RMK AO2
  • 092315Z AUTO 32014G26KT 10SM SCT028 BKN036 OVC044 M01/M06 A2989 RMK AO2
  • 092255Z AUTO 32014G19KT 7SM -SN BKN028 BKN037 OVC060 M01/M06 A2988 RMK AO2
  • 092236Z AUTO 32009KT 10SM SCT028 BKN035 BKN060 00/M05 A2988 RMK AO2
  • 092215Z AUTO 32012G19KT 10SM BKN030 BKN039 OVC050 00/M06 A2987 RMK AO2
  • 092155Z AUTO 33011G22KT 10SM SCT032 BKN038 OVC060 00/M06 A2986 RMK AO2
  • 092135Z AUTO 32011G23KT 280V340 10SM BKN035 BKN040 OVC050 00/M07 A2985 RMK AO2
  • 092116Z AUTO 31013G24KT 10SM SCT037 OVC050 01/M07 A2985 RMK AO2

TAF N/A



MET'MAP, your aeronautical weather chart ! - Copyright ORBIFLY December 2007 - Disclaimer

ORBIFLY MET'MAP TEAM :

Programming & Development : Alexandra Zaïnal
Concept & original design : Baudouin d'Aumeries
Assistance for programming : Marc-Olivier Méhu
Technical & hardware support : Manuel Goepfert

Contact : metmap@orbifly.com




SOURCES & CREDITS :

   NOAA       Earth
Advisory